Time;durP1;ratioP1;P1;durP2;ratioP2;P2;SDS_P1;SDS_P2;PMS_P1;PMS_P2;Temp;Humidity;BMP_temperature;BMP_pressure;BME280_temperature;BME280_humidity;BME280_pressure;Samples;Min_cycle;Max_cycle;Signal;HPM_P1;HPM_P2
2023/05/04 00:00:43;;;;;;;6.33;3.33;;;7.40;99.90;;;;;;5013586;28;20190;-69
2023/05/04 00:03:08;;;;;;;4.50;2.50;;;7.40;99.90;;;;;;5007829;28;20204;-66
2023/05/04 00:05:34;;;;;;;9.80;4.00;;;7.40;99.90;;;;;;5020250;28;20567;-65
2023/05/04 00:08:00;;;;;;;4.50;3.07;;;7.40;99.90;;;;;;5021367;28;20187;-65
2023/05/04 00:10:26;;;;;;;5.37;3.73;;;7.40;99.90;;;;;;5018379;28;20171;-67
2023/05/04 00:12:52;;;;;;;6.03;3.33;;;7.30;99.90;;;;;;5012413;28;20204;-66
2023/05/04 00:15:18;;;;;;;3.43;3.13;;;7.20;99.90;;;;;;5016379;28;20411;-66
2023/05/04 00:17:45;;;;;;;3.63;2.93;;;7.20;99.90;;;;;;5019980;28;20274;-65
2023/05/04 00:20:12;;;;;;;9.33;4.17;;;7.20;99.90;;;;;;4977661;28;20415;-66
2023/05/04 00:22:38;;;;;;;4.43;3.53;;;7.10;99.90;;;;;;5017864;28;20449;-68
2023/05/04 00:25:05;;;;;;;5.50;2.97;;;7.10;99.90;;;;;;5016488;28;20415;-67
2023/05/04 00:27:30;;;;;;;9.27;2.83;;;7.10;99.90;;;;;;5022137;28;20506;-67
2023/05/04 00:29:56;;;;;;;6.17;3.70;;;7.10;99.90;;;;;;5023230;28;20459;-66
2023/05/04 00:32:22;;;;;;;5.43;3.80;;;7.00;99.90;;;;;;5013952;28;20188;-65
2023/05/04 00:34:48;;;;;;;5.77;2.53;;;7.00;99.90;;;;;;5017909;28;20263;-66
2023/05/04 00:37:13;;;;;;;7.70;3.57;;;7.00;99.90;;;;;;5020120;28;20183;-65
2023/05/04 00:39:39;;;;;;;7.80;3.57;;;6.90;99.90;;;;;;5020602;28;20927;-66
2023/05/04 00:42:05;;;;;;;4.63;3.90;;;6.90;99.90;;;;;;5022149;28;20598;-67
2023/05/04 00:44:30;;;;;;;5.70;2.90;;;6.90;99.90;;;;;;5016249;28;20584;-69
2023/05/04 00:46:56;;;;;;;4.03;3.63;;;6.80;99.90;;;;;;5022973;28;20271;-67
2023/05/04 00:49:22;;;;;;;7.70;3.03;;;6.80;99.90;;;;;;5022610;28;20287;-68
2023/05/04 00:51:48;;;;;;;4.47;3.03;;;6.80;99.90;;;;;;4999862;28;20185;-66
2023/05/04 00:54:18;;;;;;;6.83;3.13;;;6.70;99.90;;;;;;5028579;28;20434;-66
2023/05/04 00:56:45;;;;;;;7.40;3.20;;;6.70;99.90;;;;;;5018939;28;20514;-66
2023/05/04 00:59:12;;;;;;;5.90;3.60;;;6.60;99.90;;;;;;5020128;28;20801;-66
2023/05/04 01:01:38;;;;;;;3.90;3.13;;;6.70;99.90;;;;;;5017078;28;20411;-67
2023/05/04 01:04:03;;;;;;;6.70;2.90;;;6.60;99.90;;;;;;5021235;28;20447;-67
2023/05/04 01:06:46;;;;;;;6.80;3.77;;;6.60;99.90;;;;;;5024898;28;20275;-68
2023/05/04 01:09:37;;;;;;;3.33;2.97;;;6.60;99.90;;;;;;5025965;28;20323;-67
2023/05/04 01:12:10;;;;;;;7.00;3.13;;;6.60;99.90;;;;;;4988990;28;20416;-68
2023/05/04 01:14:38;;;;;;;6.53;3.70;;;6.50;99.90;;;;;;5025934;28;20426;-67
2023/05/04 01:17:06;;;;;;;9.47;3.23;;;6.50;99.90;;;;;;5026184;28;20926;-67
2023/05/04 01:19:32;;;;;;;5.80;3.83;;;6.50;99.90;;;;;;4997921;28;20941;-70
2023/05/04 01:21:58;;;;;;;6.63;3.37;;;6.40;99.90;;;;;;5020844;28;20896;-65
2023/05/04 01:24:25;;;;;;;4.47;3.03;;;6.40;99.90;;;;;;5027247;28;20429;-67
2023/05/04 01:27:14;;;;;;;6.23;3.97;;;6.40;99.90;;;;;;5022937;28;20188;-66
2023/05/04 01:29:51;;;;;;;9.27;3.87;;;6.40;99.90;;;;;;5027931;28;20539;-66
2023/05/04 01:32:18;;;;;;;11.13;3.83;;;6.40;99.90;;;;;;5023132;28;20468;-66
2023/05/04 01:34:44;;;;;;;8.50;4.07;;;6.30;99.90;;;;;;5027788;28;20539;-66
2023/05/04 01:37:09;;;;;;;6.00;4.10;;;6.30;99.90;;;;;;5022512;28;20973;-66
2023/05/04 01:39:35;;;;;;;7.57;4.50;;;6.30;99.90;;;;;;5024291;28;20179;-66
2023/05/04 01:42:01;;;;;;;9.40;4.27;;;6.30;99.90;;;;;;5026956;28;20187;-65
2023/05/04 01:44:26;;;;;;;8.93;4.63;;;6.30;99.90;;;;;;5027876;28;20199;-66
2023/05/04 01:46:52;;;;;;;6.17;3.97;;;6.30;99.90;;;;;;5021930;28;20604;-68
2023/05/04 01:49:18;;;;;;;4.37;3.73;;;6.30;99.90;;;;;;5025996;28;20248;-66
2023/05/04 01:51:45;;;;;;;8.60;3.43;;;6.20;99.90;;;;;;5016772;28;20272;-66
2023/05/04 01:54:11;;;;;;;8.10;4.07;;;6.20;99.90;;;;;;5024593;28;20584;-66
2023/05/04 01:56:37;;;;;;;12.60;3.50;;;6.20;99.90;;;;;;5033240;28;20421;-67
2023/05/04 01:59:02;;;;;;;4.90;2.90;;;6.30;99.90;;;;;;5021491;28;20873;-68
2023/05/04 02:01:28;;;;;;;5.63;3.80;;;6.30;99.90;;;;;;5029340;28;20475;-65
2023/05/04 02:03:54;;;;;;;7.33;4.53;;;6.30;99.90;;;;;;5032498;28;20203;-66
2023/05/04 02:06:19;;;;;;;7.60;4.07;;;6.30;99.90;;;;;;5031579;28;20617;-66
2023/05/04 02:08:45;;;;;;;9.13;3.80;;;6.20;99.90;;;;;;5021798;28;20203;-65
2023/05/04 02:11:13;;;;;;;11.07;4.40;;;6.20;99.90;;;;;;5032044;28;20267;-68
2023/05/04 02:13:39;;;;;;;9.60;3.67;;;6.20;99.90;;;;;;5004695;28;20625;-69
2023/05/04 02:16:05;;;;;;;7.50;3.77;;;6.20;99.90;;;;;;5028642;28;20446;-65
2023/05/04 02:18:31;;;;;;;11.33;4.13;;;6.10;99.90;;;;;;5029068;28;20308;-65
2023/05/04 02:20:56;;;;;;;3.53;3.17;;;6.00;99.90;;;;;;5024299;28;20407;-65
2023/05/04 02:23:22;;;;;;;7.13;4.23;;;6.00;99.90;;;;;;5029075;28;20257;-66
2023/05/04 02:25:48;;;;;;;4.10;3.10;;;6.10;99.90;;;;;;5022136;28;20203;-67
2023/05/04 02:28:13;;;;;;;9.40;3.23;;;6.00;99.90;;;;;;5030742;28;20964;-71
2023/05/04 02:30:41;;;;;;;6.00;2.97;;;5.90;99.90;;;;;;5026972;28;20774;-66
2023/05/04 02:33:06;;;;;;;6.57;3.63;;;6.00;99.90;;;;;;5030747;28;20580;-65
2023/05/04 02:35:32;;;;;;;5.53;2.93;;;6.00;99.90;;;;;;5029255;28;20509;-66
2023/05/04 02:37:58;;;;;;;5.37;2.90;;;6.00;99.90;;;;;;5029620;28;20306;-68
2023/05/04 02:40:23;;;;;;;5.90;3.73;;;6.10;99.90;;;;;;5029620;28;20232;-65
2023/05/04 02:42:49;;;;;;;4.70;2.43;;;6.10;99.90;;;;;;5021802;28;20569;-65
2023/05/04 02:45:15;;;;;;;6.03;2.70;;;6.10;99.90;;;;;;5030504;28;20172;-65
2023/05/04 02:47:40;;;;;;;7.77;3.50;;;6.00;99.90;;;;;;5024634;28;20179;-67
2023/05/04 02:50:06;;;;;;;3.77;3.03;;;6.10;99.90;;;;;;5030291;28;20674;-68
2023/05/04 02:52:32;;;;;;;7.13;3.97;;;6.00;99.90;;;;;;5031720;28;20266;-66
2023/05/04 02:54:58;;;;;;;5.03;3.60;;;6.10;99.90;;;;;;5032025;28;21086;-65
2023/05/04 02:57:24;;;;;;;6.80;3.13;;;6.10;99.90;;;;;;5031637;28;20175;-66
2023/05/04 02:59:50;;;;;;;7.17;3.97;;;6.00;99.90;;;;;;5022849;28;20906;-67
2023/05/04 03:02:15;;;;;;;7.60;2.67;;;6.00;99.90;;;;;;5031613;28;20488;-66
2023/05/04 03:04:41;;;;;;;5.93;3.63;;;6.00;99.90;;;;;;5009694;28;20469;-67
2023/05/04 03:07:08;;;;;;;4.77;3.40;;;6.00;99.90;;;;;;5020936;28;20234;-69
2023/05/04 03:09:33;;;;;;;4.20;2.50;;;6.00;99.90;;;;;;5024449;28;20198;-68
2023/05/04 03:12:00;;;;;;;5.83;2.93;;;5.90;99.90;;;;;;5022815;28;20788;-67
2023/05/04 03:14:25;;;;;;;9.43;3.50;;;5.90;99.90;;;;;;5030799;28;20591;-68
2023/05/04 03:16:51;;;;;;;8.47;3.13;;;5.90;99.90;;;;;;5022280;28;20473;-68
2023/05/04 03:19:17;;;;;;;4.20;3.00;;;5.90;99.90;;;;;;5023225;28;20214;-66
2023/05/04 03:21:44;;;;;;;5.87;3.13;;;5.90;99.90;;;;;;5028271;28;20314;-68
2023/05/04 03:24:10;;;;;;;4.20;3.20;;;5.90;99.90;;;;;;5031141;28;20446;-66
2023/05/04 03:26:36;;;;;;;2.80;2.50;;;6.00;99.90;;;;;;5019474;28;20928;-66
2023/05/04 03:29:01;;;;;;;10.57;3.80;;;6.00;99.90;;;;;;5022396;28;20196;-67
2023/05/04 03:31:27;;;;;;;5.13;3.20;;;6.00;99.90;;;;;;5031138;28;20179;-66
2023/05/04 03:33:52;;;;;;;4.00;3.60;;;5.90;99.90;;;;;;5027566;28;20227;-65
2023/05/04 03:36:18;;;;;;;8.13;3.17;;;5.90;99.90;;;;;;5023135;28;20171;-67
2023/05/04 03:38:44;;;;;;;8.60;4.03;;;5.90;99.90;;;;;;5020340;28;20186;-66
2023/05/04 03:41:10;;;;;;;5.13;3.20;;;5.90;99.90;;;;;;5023810;28;20610;-66
2023/05/04 03:43:36;;;;;;;4.47;3.40;;;5.90;99.90;;;;;;5029492;28;20204;-66
2023/05/04 03:46:01;;;;;;;6.20;2.60;;;5.90;99.90;;;;;;5008895;28;20972;-65
2023/05/04 03:48:27;;;;;;;4.87;3.03;;;6.00;99.90;;;;;;5024320;28;20210;-66
2023/05/04 03:50:53;;;;;;;11.27;4.13;;;6.00;99.90;;;;;;5013764;28;20190;-67
2023/05/04 03:53:18;;;;;;;4.10;3.00;;;6.00;99.90;;;;;;4997301;28;20219;-67
2023/05/04 03:55:44;;;;;;;7.03;3.10;;;6.00;99.90;;;;;;5020573;28;20619;-68
2023/05/04 03:58:10;;;;;;;4.40;2.90;;;6.10;99.90;;;;;;5012072;28;20168;-67
2023/05/04 04:00:36;;;;;;;7.30;2.67;;;6.10;99.90;;;;;;4985697;28;20249;-66
2023/05/04 04:03:02;;;;;;;4.93;2.70;;;6.10;99.90;;;;;;5018848;28;20454;-66
2023/05/04 04:05:27;;;;;;;7.13;3.00;;;6.20;99.90;;;;;;5026506;28;20551;-66
2023/05/04 04:07:53;;;;;;;6.57;3.50;;;6.20;99.90;;;;;;5023359;28;20422;-66
2023/05/04 04:10:18;;;;;;;6.50;3.23;;;6.20;99.90;;;;;;5027804;28;20305;-68
2023/05/04 04:12:44;;;;;;;4.60;3.40;;;6.30;99.90;;;;;;5023356;28;20202;-66
2023/05/04 04:15:10;;;;;;;4.27;2.87;;;6.30;99.90;;;;;;5021365;28;20173;-65
2023/05/04 04:17:36;;;;;;;8.70;3.07;;;6.30;99.90;;;;;;5025750;28;20266;-65
2023/05/04 04:20:02;;;;;;;16.40;3.50;;;6.40;99.90;;;;;;5021631;28;20573;-66
2023/05/04 04:22:27;;;;;;;7.50;2.90;;;6.40;99.90;;;;;;5019957;28;20179;-66
2023/05/04 04:24:53;;;;;;;3.73;2.43;;;6.50;99.90;;;;;;5019759;28;20424;-66
2023/05/04 04:27:18;;;;;;;3.97;2.83;;;6.50;99.90;;;;;;5027343;28;20187;-65
2023/05/04 04:29:44;;;;;;;9.13;2.97;;;6.60;99.90;;;;;;5023477;28;20202;-66
2023/05/04 04:32:10;;;;;;;6.80;3.50;;;6.60;99.90;;;;;;5016332;28;20659;-67
2023/05/04 04:34:35;;;;;;;3.70;2.60;;;6.60;99.90;;;;;;5021020;28;20214;-68
2023/05/04 04:37:01;;;;;;;9.70;2.83;;;6.70;99.90;;;;;;5017579;28;20643;-65
2023/05/04 04:39:27;;;;;;;6.83;2.80;;;6.80;99.90;;;;;;5028290;28;20533;-66
2023/05/04 04:41:53;;;;;;;6.23;3.63;;;6.80;99.90;;;;;;5014862;28;20235;-65
2023/05/04 04:44:19;;;;;;;8.33;3.30;;;6.90;99.90;;;;;;5017545;28;20417;-66
2023/05/04 04:46:46;;;;;;;6.50;3.67;;;6.90;99.90;;;;;;5020556;28;20544;-65
2023/05/04 04:49:11;;;;;;;8.03;3.53;;;7.00;99.90;;;;;;5017520;28;20511;-66
2023/05/04 04:51:39;;;;;;;2.83;2.57;;;7.10;99.90;;;;;;5023596;28;20407;-65
2023/05/04 04:54:05;;;;;;;10.43;3.90;;;7.20;99.90;;;;;;4999314;28;20275;-68
2023/05/04 04:56:31;;;;;;;5.50;3.37;;;7.20;99.90;;;;;;5027434;28;20481;-66
2023/05/04 04:58:56;;;;;;;4.73;3.40;;;7.30;99.90;;;;;;5023981;28;20175;-66
2023/05/04 05:01:22;;;;;;;8.37;2.70;;;7.50;99.90;;;;;;5026166;28;20670;-69
2023/05/04 05:03:49;;;;;;;10.80;3.20;;;7.50;99.90;;;;;;5030476;28;20274;-71
2023/05/04 05:06:14;;;;;;;6.00;3.67;;;7.70;99.90;;;;;;5023071;28;20744;-67
2023/05/04 05:08:42;;;;;;;8.50;3.20;;;7.90;99.90;;;;;;5025189;28;20479;-68
2023/05/04 05:11:09;;;;;;;5.27;3.03;;;8.00;99.90;;;;;;5017910;28;20418;-65
2023/05/04 05:13:34;;;;;;;8.50;4.17;;;8.10;99.90;;;;;;5023642;28;20480;-69
2023/05/04 05:16:00;;;;;;;5.70;5.20;;;8.40;99.90;;;;;;5027647;28;20410;-65
2023/05/04 05:18:28;;;;;;;5.00;2.97;;;8.90;99.90;;;;;;5023988;28;20239;-66
2023/05/04 05:20:54;;;;;;;6.03;2.60;;;9.70;99.90;;;;;;5026537;28;20539;-66
2023/05/04 05:23:19;;;;;;;8.07;3.90;;;10.40;99.90;;;;;;5020728;28;20891;-67
2023/05/04 05:25:45;;;;;;;4.17;3.47;;;11.00;99.90;;;;;;5024652;28;20533;-67
2023/05/04 05:28:12;;;;;;;7.53;4.50;;;11.10;99.90;;;;;;5023016;28;20172;-66
2023/05/04 05:30:38;;;;;;;4.27;2.50;;;11.50;99.90;;;;;;5023462;28;20767;-67
2023/05/04 05:33:04;;;;;;;3.23;2.93;;;12.10;99.90;;;;;;5023252;28;20487;-66
2023/05/04 05:35:30;;;;;;;7.37;3.20;;;12.80;99.90;;;;;;4996847;28;20183;-66
2023/05/04 05:37:56;;;;;;;7.30;3.00;;;13.40;99.90;;;;;;5019322;28;20414;-67
2023/05/04 05:40:22;;;;;;;4.57;2.97;;;13.00;99.90;;;;;;5009592;28;20452;-66
2023/05/04 05:42:48;;;;;;;5.73;2.67;;;13.00;99.90;;;;;;5015385;28;20440;-69
2023/05/04 05:45:13;;;;;;;5.17;2.63;;;14.00;99.90;;;;;;5017522;28;20641;-68
2023/05/04 05:47:39;;;;;;;6.10;2.87;;;14.60;99.90;;;;;;5019872;28;20517;-67
2023/05/04 05:50:06;;;;;;;6.23;2.70;;;14.80;99.90;;;;;;5019018;28;20233;-66
2023/05/04 05:52:31;;;;;;;3.43;3.13;;;13.90;99.90;;;;;;5013085;28;20174;-67
2023/05/04 05:54:57;;;;;;;4.57;2.57;;;13.70;99.90;;;;;;5018372;28;20753;-68
2023/05/04 05:57:22;;;;;;;4.33;2.30;;;14.80;99.90;;;;;;5013423;28;20259;-66
2023/05/04 05:59:48;;;;;;;3.43;2.67;;;15.00;99.90;;;;;;5021669;28;20178;-68
2023/05/04 06:02:14;;;;;;;7.50;3.00;;;15.00;99.90;;;;;;5025805;28;20174;-69
2023/05/04 06:04:45;;;;;;;3.87;2.97;;;15.50;99.90;;;;;;5024594;28;20214;-68
2023/05/04 06:07:12;;;;;;;8.80;3.13;;;15.80;99.90;;;;;;5021915;28;20177;-67
2023/05/04 06:09:38;;;;;;;7.53;3.60;;;15.80;99.90;;;;;;5017520;28;20455;-69
2023/05/04 06:12:05;;;;;;;4.60;3.00;;;16.30;99.90;;;;;;5009116;28;20444;-68
2023/05/04 06:14:32;;;;;;;5.57;3.20;;;16.80;99.70;;;;;;4995124;28;20193;-68
2023/05/04 06:16:57;;;;;;;6.33;2.40;;;17.00;98.70;;;;;;4999852;28;20938;-65
2023/05/04 06:19:24;;;;;;;7.67;2.87;;;16.90;98.50;;;;;;5024034;28;20421;-66
2023/05/04 06:21:49;;;;;;;7.30;3.13;;;16.40;98.50;;;;;;5018750;28;21370;-66
2023/05/04 06:24:15;;;;;;;6.00;3.87;;;17.70;97.10;;;;;;5015811;28;20435;-67
2023/05/04 06:26:41;;;;;;;5.50;2.83;;;18.10;95.60;;;;;;4996601;28;20264;-68
2023/05/04 06:29:07;;;;;;;10.43;4.33;;;17.30;95.20;;;;;;5020129;28;20213;-67
2023/05/04 06:31:32;;;;;;;8.93;3.00;;;17.50;96.60;;;;;;4999756;28;20180;-67
2023/05/04 06:33:58;;;;;;;4.73;3.70;;;16.50;96.40;;;;;;5015206;28;20224;-66
2023/05/04 06:36:25;;;;;;;7.83;3.10;;;16.40;97.40;;;;;;4994620;28;20175;-67
2023/05/04 06:38:50;;;;;;;7.07;3.67;;;17.20;96.50;;;;;;5002891;28;20191;-67
2023/05/04 06:41:16;;;;;;;6.47;3.13;;;18.50;95.90;;;;;;5007317;28;20483;-67
2023/05/04 06:43:42;;;;;;;7.97;3.47;;;18.30;94.30;;;;;;5018495;28;20290;-68
2023/05/04 06:46:08;;;;;;;5.43;2.97;;;18.20;95.00;;;;;;5012730;28;20274;-67
2023/05/04 06:48:33;;;;;;;3.17;2.80;;;18.40;95.30;;;;;;5021466;28;20545;-70
2023/05/04 06:50:59;;;;;;;5.57;3.83;;;19.10;93.20;;;;;;5022140;28;20179;-67
2023/05/04 06:53:24;;;;;;;4.60;3.20;;;18.40;94.30;;;;;;5021161;28;20202;-67
2023/05/04 06:55:50;;;;;;;6.40;3.10;;;19.10;92.70;;;;;;5013666;28;20230;-67
2023/05/04 06:58:18;;;;;;;4.80;3.00;;;18.40;92.70;;;;;;5017080;28;20182;-68
2023/05/04 07:00:43;;;;;;;5.73;4.17;;;18.50;94.20;;;;;;5015504;28;20176;-66
2023/05/04 07:03:09;;;;;;;6.00;3.60;;;19.50;92.00;;;;;;5008697;28;20937;-66
2023/05/04 07:05:38;;;;;;;6.27;4.10;;;18.90;92.50;;;;;;5019735;28;20170;-66
2023/05/04 07:08:04;;;;;;;4.73;3.40;;;18.40;92.60;;;;;;5003608;28;20180;-66
2023/05/04 07:10:30;;;;;;;5.83;3.07;;;18.50;93.70;;;;;;5016670;28;20804;-67
2023/05/04 07:12:55;;;;;;;7.40;3.37;;;18.30;92.10;;;;;;5014555;28;20802;-67
2023/05/04 07:15:21;;;;;;;6.43;2.80;;;18.30;91.60;;;;;;5026712;28;20414;-67
2023/05/04 07:17:47;;;;;;;4.83;3.57;;;20.20;90.30;;;;;;5023495;28;20615;-67
2023/05/04 07:20:14;;;;;;;7.00;3.07;;;21.50;85.50;;;;;;5017571;28;20189;-68
2023/05/04 07:22:39;;;;;;;2.77;2.47;;;21.20;82.80;;;;;;5013377;28;20602;-66
2023/05/04 07:25:05;;;;;;;5.80;2.80;;;20.10;88.90;;;;;;5011788;28;20526;-67
2023/05/04 07:27:31;;;;;;;5.63;3.23;;;20.70;85.40;;;;;;5011133;28;20184;-67
2023/05/04 07:29:57;;;;;;;7.50;2.97;;;20.40;85.80;;;;;;5016437;28;20320;-68
2023/05/04 07:32:23;;;;;;;5.00;3.10;;;20.00;89.70;;;;;;5011772;28;20631;-66
2023/05/04 07:34:48;;;;;;;3.63;3.10;;;20.70;85.40;;;;;;5014743;28;20215;-67
2023/05/04 07:37:17;;;;;;;7.03;3.20;;;19.20;86.40;;;;;;5021019;28;20258;-68
2023/05/04 07:39:46;;;;;;;3.47;2.47;;;19.60;88.70;;;;;;5012716;28;20241;-68
2023/05/04 07:42:12;;;;;;;5.80;2.70;;;21.60;84.60;;;;;;4991684;28;20436;-66
2023/05/04 07:44:37;;;;;;;4.13;3.10;;;20.80;81.80;;;;;;5012538;28;20446;-66
2023/05/04 07:47:03;;;;;;;4.40;2.37;;;19.60;81.30;;;;;;5014862;28;20180;-68
2023/05/04 07:49:29;;;;;;;4.70;3.10;;;19.50;83.50;;;;;;5020481;28;20278;-67
2023/05/04 07:51:54;;;;;;;7.80;3.03;;;19.70;88.10;;;;;;5016323;28;20176;-67
2023/05/04 07:54:21;;;;;;;4.73;2.70;;;20.30;82.20;;;;;;5012305;28;20192;-67
2023/05/04 07:56:46;;;;;;;7.67;2.70;;;20.10;81.50;;;;;;5015035;28;20235;-68
2023/05/04 07:59:12;;;;;;;6.50;2.50;;;20.90;84.60;;;;;;5014418;28;20526;-67
2023/05/04 08:01:38;;;;;;;4.60;2.67;;;20.50;85.70;;;;;;5001056;28;20179;-69
2023/05/04 08:04:04;;;;;;;5.50;3.10;;;20.70;84.20;;;;;;5010888;28;20502;-70
2023/05/04 08:06:29;;;;;;;3.93;3.20;;;20.30;82.20;;;;;;5012680;28;20550;-67
2023/05/04 08:08:58;;;;;;;5.63;2.47;;;20.90;85.90;;;;;;5009846;28;20208;-68
2023/05/04 08:11:23;;;;;;;3.53;2.20;;;21.30;85.20;;;;;;4994252;28;20536;-67
2023/05/04 08:13:49;;;;;;;4.43;2.70;;;20.70;88.10;;;;;;5012648;28;20438;-68
2023/05/04 08:16:16;;;;;;;7.10;2.63;;;21.10;81.90;;;;;;5012774;28;20301;-66
2023/05/04 08:18:42;;;;;;;6.50;2.80;;;20.60;78.70;;;;;;5019922;28;20418;-67
2023/05/04 08:21:08;;;;;;;3.87;2.50;;;20.50;76.00;;;;;;5019281;28;20422;-69
2023/05/04 08:23:36;;;;;;;2.93;2.00;;;22.20;72.70;;;;;;5012679;28;20446;-68
2023/05/04 08:26:03;;;;;;;3.17;2.13;;;22.90;71.90;;;;;;5016034;28;20179;-68
2023/05/04 08:28:40;;;;;;;6.30;2.70;;;21.90;75.70;;;;;;4993961;28;20482;-66
2023/05/04 08:31:08;;;;;;;5.30;2.07;;;21.90;71.30;;;;;;5005184;28;20418;-66
2023/05/04 08:33:34;;;;;;;3.77;2.47;;;21.40;77.50;;;;;;5010681;28;20479;-67
2023/05/04 08:36:00;;;;;;;3.57;1.97;;;21.40;74.00;;;;;;5014105;28;20449;-67
2023/05/04 08:38:25;;;;;;;3.43;2.37;;;22.20;71.50;;;;;;5010515;28;20691;-69
2023/05/04 08:40:51;;;;;;;4.50;2.67;;;21.50;73.20;;;;;;4998746;28;20673;-69
2023/05/04 08:43:17;;;;;;;2.40;2.10;;;21.50;73.40;;;;;;4997346;28;20234;-68
2023/05/04 08:45:43;;;;;;;2.47;2.27;;;20.90;79.20;;;;;;5011890;28;20187;-68
2023/05/04 08:48:09;;;;;;;5.57;2.80;;;21.80;71.10;;;;;;5023038;28;20229;-67
2023/05/04 08:50:44;;;;;;;5.70;2.30;;;21.80;70.20;;;;;;5005773;28;20765;-68
2023/05/04 08:53:15;;;;;;;4.83;2.40;;;22.10;69.80;;;;;;5016653;28;20250;-68
2023/05/04 08:55:46;;;;;;;3.23;2.37;;;22.60;70.30;;;;;;5018174;28;20446;-68
2023/05/04 08:58:13;;;;;;;3.63;2.40;;;21.20;69.50;;;;;;4998701;28;20605;-68
2023/05/04 09:00:40;;;;;;;4.97;2.50;;;21.60;74.10;;;;;;4996790;28;20419;-69
2023/05/04 09:03:09;;;;;;;3.67;2.30;;;22.30;67.30;;;;;;5024580;28;20438;-68
2023/05/04 09:05:41;;;;;;;2.70;2.50;;;22.80;66.20;;;;;;5022924;28;20414;-68
2023/05/04 09:08:13;;;;;;;4.80;3.00;;;21.60;67.80;;;;;;5016636;28;20415;-67
2023/05/04 09:10:44;;;;;;;2.17;1.90;;;20.00;69.20;;;;;;4997558;28;20513;-68
2023/05/04 09:13:10;;;;;;;3.90;2.50;;;20.40;75.10;;;;;;4981243;28;20442;-67
2023/05/04 09:15:36;;;;;;;3.10;2.80;;;20.30;70.90;;;;;;5017928;28;20420;-69
2023/05/04 09:18:08;;;;;;;8.07;2.93;;;20.10;70.90;;;;;;5013663;28;20198;-67
2023/05/04 09:20:48;;;;;;;3.70;2.70;;;19.50;71.10;;;;;;5003389;28;21190;-67
2023/05/04 09:23:15;;;;;;;5.00;2.60;;;20.00;71.80;;;;;;5015795;28;21065;-69
2023/05/04 09:25:50;;;;;;;4.67;2.57;;;20.70;71.70;;;;;;5020319;28;20505;-67
2023/05/04 09:28:17;;;;;;;5.30;3.20;;;22.30;66.50;;;;;;5023175;28;20413;-68
2023/05/04 09:30:44;;;;;;;2.70;2.30;;;21.90;70.20;;;;;;5021718;28;20726;-68
2023/05/04 09:33:10;;;;;;;7.70;3.17;;;20.90;69.30;;;;;;5021041;28;20459;-67
2023/05/04 09:35:40;;;;;;;4.23;2.53;;;21.30;68.30;;;;;;5014452;28;20403;-68
2023/05/04 09:38:06;;;;;;;8.07;2.40;;;21.90;67.10;;;;;;5020921;28;20202;-68
2023/05/04 09:40:40;;;;;;;4.73;2.60;;;21.70;67.40;;;;;;5026269;28;20761;-68
2023/05/04 09:43:07;;;;;;;8.50;5.20;;;21.10;67.40;;;;;;5007795;28;20601;-68
2023/05/04 09:45:39;;;;;;;2.83;2.53;;;22.20;63.00;;;;;;5012483;28;20403;-68
2023/05/04 09:48:24;;;;;;;4.77;2.77;;;22.50;62.10;;;;;;5006883;28;20832;-68
2023/05/04 09:50:58;;;;;;;7.63;6.50;;;22.80;61.30;;;;;;5020031;28;20441;-68
2023/05/04 09:53:24;;;;;;;4.00;2.80;;;21.30;66.60;;;;;;5007160;28;20454;-67
2023/05/04 09:56:05;;;;;;;6.30;3.77;;;20.90;68.80;;;;;;5015241;28;20783;-67
2023/05/04 09:58:32;;;;;;;2.97;2.57;;;20.10;66.60;;;;;;5005470;28;20425;-69
2023/05/04 10:01:00;;;;;;;3.80;2.47;;;19.90;68.80;;;;;;5006715;28;20811;-63
2023/05/04 10:03:26;;;;;;;3.23;2.80;;;20.20;67.80;;;;;;5020827;28;20452;-62
2023/05/04 10:05:53;;;;;;;3.60;2.60;;;20.70;64.60;;;;;;5012092;28;20421;-68
2023/05/04 10:08:19;;;;;;;3.93;3.13;;;20.20;65.30;;;;;;5012882;28;20420;-68
2023/05/04 10:10:45;;;;;;;4.27;3.40;;;19.80;67.30;;;;;;5016596;28;20491;-68
2023/05/04 10:13:11;;;;;;;4.77;2.60;;;20.20;64.50;;;;;;5013694;28;20427;-67
2023/05/04 10:15:50;;;;;;;10.40;6.33;;;20.10;64.00;;;;;;5024916;28;20825;-67
2023/05/04 10:18:55;;;;;;;4.80;2.70;;;20.30;64.80;;;;;;5018596;28;20663;-67
2023/05/04 10:21:38;;;;;;;5.00;2.33;;;20.10;65.00;;;;;;4982000;28;20433;-66
2023/05/04 10:24:56;;;;;;;5.47;3.50;;;20.00;66.00;;;;;;5005035;28;20455;-66
2023/05/04 10:27:42;;;;;;;5.00;2.47;;;20.60;62.40;;;;;;4950583;28;20917;-66
2023/05/04 10:30:11;;;;;;;5.60;3.23;;;19.50;64.20;;;;;;5002439;28;20978;-66
2023/05/04 10:32:38;;;;;;;16.57;10.50;;;19.40;68.40;;;;;;5010914;28;20815;-66
2023/05/04 10:35:08;;;;;;;3.80;2.33;;;19.60;70.30;;;;;;5009233;28;20791;-66
2023/05/04 10:37:36;;;;;;;7.57;5.50;;;19.60;69.70;;;;;;5012007;28;20952;-69
2023/05/04 10:40:06;;;;;;;4.93;2.90;;;20.00;63.10;;;;;;5021301;28;20432;-67
2023/05/04 10:42:42;;;;;;;13.87;10.37;;;20.20;62.20;;;;;;5016044;28;20424;-66
2023/05/04 10:45:08;;;;;;;9.77;7.53;;;20.00;63.90;;;;;;5015719;28;20466;-66
2023/05/04 10:47:36;;;;;;;8.73;3.30;;;19.60;65.50;;;;;;5008272;28;20416;-66
2023/05/04 10:50:13;;;;;;;3.10;2.13;;;19.00;62.70;;;;;;5019306;28;20465;-66
2023/05/04 10:52:50;;;;;;;4.20;2.37;;;19.00;62.80;;;;;;5015562;28;20432;-66
2023/05/04 10:55:16;;;;;;;2.63;2.43;;;19.20;63.90;;;;;;5010200;28;20443;-66
2023/05/04 10:58:10;;;;;;;12.27;10.20;;;19.50;63.90;;;;;;5010518;28;20443;-66
2023/05/04 11:00:42;;;;;;;6.27;2.43;;;20.00;65.10;;;;;;5003313;28;20454;-66
2023/05/04 11:03:08;;;;;;;3.33;2.40;;;19.90;61.70;;;;;;5017885;28;20476;-66
2023/05/04 11:05:43;;;;;;;6.97;3.20;;;19.60;63.60;;;;;;5020245;28;20826;-67
2023/05/04 11:08:15;;;;;;;5.77;3.50;;;19.60;63.50;;;;;;5018559;28;20463;-67
2023/05/04 11:10:42;;;;;;;4.80;2.73;;;19.40;62.90;;;;;;5014087;28;20450;-68
2023/05/04 11:13:14;;;;;;;7.77;3.20;;;19.70;65.60;;;;;;5001089;28;20516;-66
2023/05/04 11:15:47;;;;;;;3.37;2.67;;;19.60;66.00;;;;;;4999851;28;20418;-66
2023/05/04 11:18:13;;;;;;;3.10;2.80;;;19.20;64.20;;;;;;5019322;28;20422;-66
2023/05/04 11:20:40;;;;;;;5.43;3.10;;;19.30;65.10;;;;;;5011891;28;20798;-67
2023/05/04 11:23:09;;;;;;;5.80;2.53;;;19.10;65.10;;;;;;5018303;28;20535;-67
2023/05/04 11:25:36;;;;;;;4.90;3.00;;;19.40;66.10;;;;;;4998956;28;20417;-67
2023/05/04 11:28:02;;;;;;;3.60;2.40;;;19.40;66.30;;;;;;5025243;28;20861;-67
2023/05/04 11:30:34;;;;;;;9.10;2.80;;;19.50;63.60;;;;;;5021362;28;20542;-68
2023/05/04 11:33:02;;;;;;;4.17;2.90;;;19.30;62.60;;;;;;5022818;28;20502;-67
2023/05/04 11:35:28;;;;;;;3.83;2.60;;;19.20;64.20;;;;;;5000367;28;20460;-69
2023/05/04 11:37:54;;;;;;;3.17;2.87;;;19.60;64.00;;;;;;5024799;28;20553;-67
2023/05/04 11:40:24;;;;;;;5.20;2.80;;;19.50;64.20;;;;;;5006118;28;20169;-68
2023/05/04 11:42:52;;;;;;;9.73;2.50;;;19.70;59.90;;;;;;5019565;28;20942;-68
2023/05/04 11:45:22;;;;;;;6.77;2.70;;;20.20;60.00;;;;;;5019753;28;20740;-67
2023/05/04 11:47:52;;;;;;;8.07;2.93;;;19.70;63.50;;;;;;5013169;28;20423;-67
2023/05/04 11:50:20;;;;;;;3.93;2.70;;;19.50;62.20;;;;;;5002096;28;20462;-67
2023/05/04 11:52:46;;;;;;;5.93;2.47;;;19.50;63.30;;;;;;4962608;28;20421;-67
2023/05/04 11:55:26;;;;;;;7.57;3.13;;;19.50;61.80;;;;;;4999237;28;20422;-67
2023/05/04 11:58:06;;;;;;;5.40;2.43;;;19.30;61.80;;;;;;5002832;28;20502;-68
2023/05/04 12:00:45;;;;;;;2.87;2.40;;;19.10;60.50;;;;;;5007096;28;20412;-69
2023/05/04 12:03:13;;;;;;;5.40;3.33;;;19.50;60.80;;;;;;4991526;28;20436;-66
2023/05/04 12:05:52;;;;;;;4.10;2.40;;;19.80;61.10;;;;;;5005102;28;20416;-67
2023/05/04 12:08:26;;;;;;;3.27;2.37;;;19.60;62.30;;;;;;5006814;28;20481;-66
2023/05/04 12:11:24;;;;;;;6.40;3.07;;;20.00;61.10;;;;;;4994139;28;20439;-67
2023/05/04 12:14:04;;;;;;;3.43;3.13;;;20.30;60.70;;;;;;4999724;28;20449;-68
2023/05/04 12:16:30;;;;;;;5.40;2.80;;;20.40;59.80;;;;;;4999932;28;20429;-67
2023/05/04 12:19:12;;;;;;;4.63;2.57;;;20.00;60.90;;;;;;4995992;28;20671;-67
2023/05/04 12:21:51;;;;;;;4.27;2.67;;;20.00;60.50;;;;;;4995553;28;20205;-68
2023/05/04 12:24:20;;;;;;;3.10;2.50;;;20.40;59.50;;;;;;5017327;28;20460;-67
2023/05/04 12:26:46;;;;;;;11.47;3.30;;;19.90;58.70;;;;;;5018113;28;20418;-72
2023/05/04 12:29:12;;;;;;;3.77;3.07;;;20.20;58.40;;;;;;5014534;28;20523;-71
2023/05/04 12:31:37;;;;;;;5.00;2.60;;;20.10;59.10;;;;;;5018071;28;20177;-71
2023/05/04 12:34:03;;;;;;;4.13;3.03;;;19.90;59.90;;;;;;5017792;28;20578;-72
2023/05/04 12:36:28;;;;;;;6.77;2.70;;;20.00;60.30;;;;;;5021726;28;20172;-72
2023/05/04 12:38:54;;;;;;;6.00;3.57;;;19.60;59.20;;;;;;5011487;28;20545;-71
2023/05/04 12:41:20;;;;;;;4.77;2.70;;;19.80;59.20;;;;;;5013354;28;20174;-71
2023/05/04 12:43:45;;;;;;;4.30;2.80;;;20.00;59.60;;;;;;5015159;28;20208;-72
2023/05/04 12:46:11;;;;;;;3.83;3.10;;;19.70;59.70;;;;;;5019915;28;20419;-72
2023/05/04 12:48:37;;;;;;;5.20;2.67;;;20.10;60.40;;;;;;5020415;28;20198;-73
2023/05/04 12:51:03;;;;;;;5.03;2.70;;;20.40;58.60;;;;;;5002775;28;20251;-72
2023/05/04 12:53:30;;;;;;;3.40;3.10;;;20.20;58.70;;;;;;5009372;28;20781;-72